Time;durP1;ratioP1;P1;durP2;ratioP2;P2;SDS_P1;SDS_P2;PMS_P1;PMS_P2;Temp;Humidity;BMP_temperature;BMP_pressure;BME280_temperature;BME280_humidity;BME280_pressure;Samples;Min_cycle;Max_cycle;Signal;HPM_P1;HPM_P2
2023/09/23 12:17:51;;;;;;;2.35;1.20;;;;;;;17.87;64.05;100541.31;4952742;28;20142;-90
2023/09/23 12:20:18;;;;;;;1.20;1.08;;;;;;;17.87;65.03;100547.53;4939063;29;20102;-89
2023/09/23 12:22:45;;;;;;;1.20;1.10;;;;;;;17.94;64.64;100548.94;4938832;29;20051;-89
2023/09/23 12:25:30;;;;;;;1.60;1.00;;;;;;;17.94;63.38;100553.41;4924370;29;20047;-89
2023/09/23 12:28:00;;;;;;;1.17;1.00;;;;;;;17.86;63.52;100552.94;4924074;29;20430;-89
2023/09/23 12:30:27;;;;;;;1.05;0.90;;;;;;;17.81;62.96;100555.84;4922798;29;20166;-91
2023/09/23 12:32:57;;;;;;;1.55;1.10;;;;;;;17.76;62.95;100565.94;4923170;29;20051;-89
2023/09/23 12:35:32;;;;;;;1.48;1.10;;;;;;;17.64;62.78;100572.72;4924403;29;20138;-90
2023/09/23 12:38:00;;;;;;;1.55;1.17;;;;;;;17.54;63.88;100573.28;4923154;29;20058;-89
2023/09/23 12:40:32;;;;;;;1.05;0.93;;;;;;;17.23;63.19;100588.13;4923158;29;20130;-89
2023/09/23 12:43:00;;;;;;;1.25;1.15;;;;;;;17.45;64.13;100578.13;4924845;29;20047;-88
2023/09/23 12:45:27;;;;;;;1.80;1.00;;;;;;;17.61;62.83;100580.91;4924837;29;20090;-90
2023/09/23 12:47:54;;;;;;;1.35;1.00;;;;;;;17.78;64.10;100589.91;4922926;29;20050;-88
2023/09/23 12:50:25;;;;;;;1.25;1.10;;;;;;;17.78;63.80;100590.75;4923760;29;20062;-89
2023/09/23 12:52:53;;;;;;;1.35;1.25;;;;;;;17.75;63.70;100596.28;4939533;29;20043;-89
2023/09/23 12:55:26;;;;;;;2.05;1.00;;;;;;;17.75;64.29;100598.94;4927389;28;20039;-90
2023/09/23 12:57:58;;;;;;;1.80;1.00;;;;;;;17.71;63.67;100600.03;4924645;29;20051;-90
2023/09/23 13:00:28;;;;;;;2.03;1.40;;;;;;;17.80;62.56;100602.22;4924507;29;20047;-88
2023/09/23 13:02:55;;;;;;;3.50;1.00;;;;;;;17.85;63.34;100608.22;4923974;29;20047;-89
2023/09/23 13:05:22;;;;;;;1.63;1.10;;;;;;;17.85;63.34;100616.22;4924223;29;20050;-90
2023/09/23 13:07:51;;;;;;;1.42;1.10;;;;;;;18.05;62.32;100620.53;4924230;29;20051;-90
2023/09/23 13:10:18;;;;;;;1.42;1.13;;;;;;;18.28;60.44;100628.22;4922566;29;20047;-89
2023/09/23 13:12:45;;;;;;;1.58;1.35;;;;;;;18.47;61.17;100624.56;4924328;29;20051;-90
2023/09/23 13:15:13;;;;;;;1.30;1.20;;;;;;;18.53;59.89;100627.78;4923975;29;20043;-91
2023/09/23 13:17:49;;;;;;;1.80;1.00;;;;;;;18.71;60.05;100623.28;4941234;29;20555;-90
2023/09/23 13:20:18;;;;;;;1.23;1.10;;;;;;;18.54;59.03;100629.50;4925335;29;20055;-90
2023/09/23 13:22:45;;;;;;;1.52;1.10;;;;;;;18.26;58.44;100627.44;4941832;29;20047;-90
2023/09/23 13:25:15;;;;;;;1.05;0.90;;;;;;;18.19;59.98;100634.06;4931557;29;20046;-90
2023/09/23 13:27:42;;;;;;;82.10;11.93;;;;;;;18.13;60.58;100629.03;4923499;29;20447;-91
2023/09/23 13:30:09;;;;;;;1.35;0.90;;;;;;;18.04;59.45;100637.53;4922799;29;20047;-90
2023/09/23 13:32:41;;;;;;;0.98;0.88;;;;;;;17.95;59.75;100646.88;4922855;29;20077;-89
2023/09/23 13:35:09;;;;;;;1.45;1.35;;;;;;;17.84;60.69;100645.72;4923321;29;20130;-89
2023/09/23 13:37:37;;;;;;;1.00;0.82;;;;;;;17.73;61.09;100656.91;4923005;29;20078;-89
2023/09/23 13:40:06;;;;;;;1.10;1.00;;;;;;;17.85;63.38;100652.78;4922540;29;20058;-91
2023/09/23 13:42:39;;;;;;;1.08;0.90;;;;;;;17.92;62.67;100659.56;4922530;29;20146;-89
2023/09/23 13:45:07;;;;;;;1.08;0.98;;;;;;;17.97;62.12;100654.81;4925966;29;20050;-92
2023/09/23 13:47:38;;;;;;;1.25;1.00;;;;;;;18.13;62.47;100657.56;4917513;29;20047;-91
2023/09/23 13:50:09;;;;;;;2.40;1.20;;;;;;;18.44;62.13;100652.34;4929856;29;20130;-90
2023/09/23 13:52:37;;;;;;;1.02;0.90;;;;;;;18.64;60.10;100661.13;4943035;29;20051;-91
2023/09/23 13:55:08;;;;;;;1.23;0.88;;;;;;;18.90;59.60;100662.41;4924925;29;20122;-88
2023/09/23 13:57:35;;;;;;;1.40;1.10;;;;;;;19.04;58.88;100663.38;4937977;29;20047;-89
2023/09/23 14:00:03;;;;;;;5.20;1.40;;;;;;;18.97;58.53;100672.69;4922079;29;20106;-89
2023/09/23 14:02:30;;;;;;;1.75;0.95;;;;;;;18.88;58.05;100680.38;4938284;29;20071;-89
2023/09/23 14:04:57;;;;;;;1.52;0.95;;;;;;;18.82;57.28;100679.75;4922461;28;20074;-88
2023/09/23 14:07:24;;;;;;;0.88;0.80;;;;;;;18.84;56.75;100687.72;4924490;29;20102;-88
2023/09/23 14:10:12;;;;;;;0.70;0.70;;;;;;;18.73;58.38;100687.41;4930736;29;20419;-87
2023/09/23 14:12:49;;;;;;;0.98;0.80;;;;;;;18.69;58.29;100688.53;4928626;29;20047;-89
2023/09/23 14:15:21;;;;;;;1.10;0.70;;;;;;;18.66;59.90;100688.69;4925873;29;20043;-90
